Rouen Airport

LFOP · Seine-Maritime, Normandie, Frankreich

METAR-Geschichte LFOP · Flughafen Rouen

Unten siehst du die METARs der letzten paar Tage. Wähle ein Jahr, um ältere METARs ab dem Jahr 2007 zu durchsuchen.

3. Dezember 2022

Uhrzeit Code Wetter Temp. Sichtweite Wolkendecke Wind METAR/SPECI
17:00
M
2 °C 10 km+ 1.000 ft 070° 070° 10 kt METAR LFOP 031600Z AUTO 07010KT 9999 OVC010 02/M00 Q1015 NOSIG
16:30
M
2 °C 10 km+ 1.000 ft 060° 060° 9 kt METAR LFOP 031530Z AUTO 06009KT 9999 OVC010 02/M00 Q1015 NOSIG
16:00
M
2 °C 10 km+ 1.100 ft 050° 050° 10 kt METAR LFOP 031500Z AUTO 05010KT 9999 OVC011 02/M00 Q1015 NOSIG
15:30
M
2 °C 10 km+ 1.200 ft 060° 060° 11 kt METAR LFOP 031430Z AUTO 06011KT 9999 OVC012 02/M00 Q1015 NOSIG
15:00
M
2 °C 10 km+ 1.200 ft 070° 070° 10 kt METAR LFOP 031400Z AUTO 07010KT 9999 OVC012 02/M00 Q1015 NOSIG
14:30
M
2 °C 10 km+ 1.300 ft 060° 060° 11 kt METAR LFOP 031330Z AUTO 06011KT 9999 OVC013 02/M00 Q1015 NOSIG
14:00
M
2 °C 10 km+ 1.200 ft 060° 060° 10 kt METAR LFOP 031300Z AUTO 06010KT 9999 OVC012 02/M01 Q1015 NOSIG
13:30
M
2 °C 10 km+ 1.200 ft 060° 060° 11 kt METAR LFOP 031230Z AUTO 06011KT 9999 OVC012 02/M00 Q1016 NOSIG
13:00
M
2 °C 10 km+ 1.200 ft 060° 060° 11 kt METAR LFOP 031200Z AUTO 06011KT 9999 OVC012 02/M01 Q1016 NOSIG
12:30
M
2 °C 10 km+ 1.200 ft 060° 060° 11 kt METAR LFOP 031130Z AUTO 06011KT 9999 OVC012 02/M00 Q1016 TEMPO OVC017
12:00
M
2 °C 9 km 1.200 ft 050° 050° 12 kt METAR LFOP 031100Z AUTO 05012KT 9000 OVC012 02/M01 Q1017 TEMPO OVC017
11:30
M
2 °C 10 km+ 1.200 ft 050° 050° 12 kt METAR LFOP 031030Z AUTO 05012KT 9999 OVC012 02/M01 Q1017 TEMPO OVC017
11:00
M
1 °C 10 km+ 1.200 ft 050° 050° 10 kt METAR LFOP 031000Z AUTO 05010KT 9999 OVC012 01/M01 Q1017 TEMPO 4000 DZ BR OVC017
10:30
M
1 °C 10 km+ 1.300 ft 050° 050° 12 kt METAR LFOP 030930Z AUTO 05012KT 9999 OVC013 01/M01 Q1017 TEMPO 4000 DZ BR OVC017
10:00
M
1 °C 10 km+ 1.300 ft 050° 050° 11 kt METAR LFOP 030900Z AUTO 05011KT 9999 OVC013 01/M01 Q1017 TEMPO 4000 DZ BR OVC008
09:30
M
1 °C 10 km+ 1.300 ft 060° 060° 10 kt METAR LFOP 030830Z AUTO 06010KT 9999 OVC013 01/M01 Q1017 TEMPO 4000 DZ BR OVC008
09:00
M
1 °C 10 km+ 1.300 ft 050° 050° 13 kt METAR LFOP 030800Z AUTO 05013KT 020V080 9999 OVC013 01/M01 Q1017 TEMPO 4000 DZ BR OVC008
08:30
M
1 °C 9 km 1.400 ft 050° 050° 11 kt METAR LFOP 030730Z AUTO 05011KT 9000 OVC014 01/M01 Q1017 TEMPO 4000 DZ BR OVC008
08:00
M
1 °C 7 km 1.100 ft 050° 050° 14 kt METAR LFOP 030700Z AUTO 05014KT 020V080 7000 OVC011 01/M01 Q1017 TEMPO 4000 DZ BR OVC008
07:30
M
1 °C 7 km 1.200 ft 060° 060° 13 kt METAR LFOP 030630Z AUTO 06013KT 7000 OVC012 01/M01 Q1017 TEMPO 4000 DZ BR OVC008
07:00
M
1 °C 7 km 1.000 ft 040° 040° 14 kt METAR LFOP 030600Z AUTO 04014KT 7000 BKN010 OVC014 01/M01 Q1017 TEMPO 4000 DZ BR
06:30
M
1 °C 7 km 1.100 ft 040° 040° 13 kt METAR LFOP 030530Z AUTO 04013KT 7000 OVC011 01/M00 Q1017
06:00
M
2 °C 7 km 1.300 ft 040° 040° 11 kt METAR LFOP 030500Z AUTO 04011KT 7000 BKN013 OVC021 02/M01 Q1018
05:30
M
2 °C 6 km 1.200 ft 040° 040° 12 kt METAR LFOP 030430Z AUTO 04012KT 6000 BKN012 OVC020 02/M01 Q1018
05:00
M
2 °C 7 km 1.200 ft 040° 040° 12 kt METAR LFOP 030400Z AUTO 04012KT 7000 -DZ OVC012 02/M00 Q1018
04:30
M
2 °C 7 km 1.100 ft 040° 040° 14 kt METAR LFOP 030330Z AUTO 04014KT 7000 OVC011 02/M01 Q1018
04:00
M
2 °C 7 km 1.100 ft 040° 040° 13 kt METAR LFOP 030300Z AUTO 04013KT 7000 OVC011 02/M00 Q1018
03:30
M
2 °C 6 km 1.100 ft 040° 040° 12 kt METAR LFOP 030230Z AUTO 04012KT 6000 OVC011 02/M01 Q1018
03:00
M
2 °C 7 km 1.200 ft 040° 040° 12 kt METAR LFOP 030200Z AUTO 04012KT 7000 OVC012 02/M00 Q1018
02:30
M
2 °C 7 km 1.200 ft 050° 050° 15 kt METAR LFOP 030130Z AUTO 05015KT 7000 OVC012 02/M00 Q1018
02:00
M
2 °C 9 km 1.500 ft 050° 050° 15 kt METAR LFOP 030100Z AUTO 05015KT 9000 FEW007 OVC015 02/M01 Q1018
01:30
I
2 °C 5 km 700 ft 040° 040° 15 kt METAR LFOP 030030Z AUTO 04015KT 5000 BR OVC007 02/01 Q1018
01:00
I
2 °C 6 km 700 ft 050° 050° 14 kt METAR LFOP 030000Z AUTO 05014KT 6000 OVC007 02/01 Q1019
00:30
I
2 °C 5 km 600 ft 040° 040° 13 kt METAR LFOP 022330Z AUTO 04013KT 5000 BR OVC006 02/01 Q1019
00:00
I
3 °C 5 km 700 ft 040° 040° 13 kt METAR LFOP 022300Z AUTO 04013KT 5000 BR OVC007 03/01 Q1019

2. Dezember 2022

Uhrzeit Code Wetter Temp. Sichtweite Wolkendecke Wind METAR/SPECI
23:30
I
3 °C 6 km 700 ft 040° 040° 14 kt METAR LFOP 022230Z AUTO 04014KT 6000 OVC007 03/01 Q1019
23:00
I
3 °C 5 km 700 ft 040° 040° 11 kt METAR LFOP 022200Z AUTO 04011KT 5000 BR OVC007 03/01 Q1019
22:30
I
3 °C 6 km 700 ft 040° 040° 12 kt METAR LFOP 022130Z AUTO 04012KT 360V060 6000 OVC007 03/01 Q1019
22:00
I
2 °C 6 km 800 ft 040° 040° 10 kt METAR LFOP 022100Z AUTO 04010KT 6000 OVC008 02/01 Q1019 TEMPO 4000 DZ BR
21:30
I
2 °C 8 km 900 ft 040° 040° 11 kt METAR LFOP 022030Z AUTO 04011KT 8000 BKN009 OVC015 02/01 Q1019 TEMPO 4000 DZ BR
21:00
M
2 °C 9 km 1.100 ft 040° 040° 11 kt METAR LFOP 022000Z AUTO 04011KT 9000 OVC011 02/00 Q1019 TEMPO 4000 DZ BR OVC008
20:30
M
2 °C 8 km 1.100 ft 040° 040° 12 kt METAR LFOP 021930Z AUTO 04012KT 8000 OVC011 02/00 Q1019 TEMPO 4000 DZ BR OVC008
20:00
I
2 °C 6 km 900 ft 040° 040° 11 kt METAR LFOP 021900Z AUTO 04011KT 6000 OVC009 02/01 Q1019 TEMPO 4000 DZ BR
19:30
I
3 °C 6 km 900 ft 040° 040° 14 kt METAR LFOP 021830Z AUTO 04014KT 6000 OVC009 03/01 Q1019 TEMPO SCT013 OVC022
19:00
M
3 °C 7 km 1.100 ft 040° 040° 12 kt METAR LFOP 021800Z AUTO 04012KT 7000 OVC011 03/01 Q1019 TEMPO SCT013 OVC022
18:30
M
3 °C 8 km 1.200 ft 040° 040° 13 kt METAR LFOP 021730Z AUTO 04013KT 8000 OVC012 03/01 Q1019 BECMG BKN007
18:00
M
3 °C 8 km 1.200 ft 030° 030° 11 kt METAR LFOP 021700Z AUTO 03011KT 8000 OVC012 03/01 Q1019 BECMG BKN007
17:30
M
4 °C 9 km 1.900 ft 040° 040° 12 kt METAR LFOP 021630Z AUTO 04012KT 9000 BKN019 OVC027 04/00 Q1019 BECMG BKN007
17:00
V
4 °C 10 km+ 3.300 ft 040° 040° 13 kt METAR LFOP 021600Z AUTO 04013KT 9999 SCT025 BKN033 OVC040 04/M00 Q1019 BECMG BKN007
16:30
V
4 °C 10 km+ 4.200 ft 040° 040° 11 kt METAR LFOP 021530Z AUTO 04011KT 9999 FEW024 SCT033 BKN042 04/00 Q1019 BECMG BKN007
16:00
M
5 °C 10 km+ 2.600 ft 020° 020° 10 kt METAR LFOP 021500Z AUTO 02010KT 9999 OVC026 05/00 Q1019 BECMG BKN007
15:30
M
4 °C 9 km 1.800 ft 020° 020° 9 kt METAR LFOP 021430Z AUTO 02009KT 9000 BKN018 OVC027 04/01 Q1020 BECMG BKN007
15:00
M
5 °C 8 km 1.700 ft 030° 030° 12 kt METAR LFOP 021400Z AUTO 03012KT 8000 BKN017 OVC022 05/01 Q1020 NOSIG
14:30
M
6 °C 8 km 1.700 ft 360° 360° 10 kt METAR LFOP 021330Z AUTO 36010KT 8000 BKN017 BKN022 06/01 Q1020 NOSIG
14:00
M
5 °C 7 km - 020° 020° 8 kt METAR LFOP 021300Z AUTO 02008KT 7000 NSC 05/02 Q1020 NOSIG
13:30
V
5 °C 8 km - 010° 010° 9 kt METAR LFOP 021230Z AUTO 01009KT 8000 NSC 05/02 Q1021 NOSIG
13:00
V
5 °C 9 km - 020° 020° 6 kt METAR LFOP 021200Z AUTO 02006KT 9000 NSC 05/02 Q1021 BECMG BKN009
12:30
V
5 °C 8 km - 020° 020° 7 kt METAR LFOP 021130Z AUTO 02007KT 8000 NSC 05/01 Q1021 BECMG BKN009
12:00
V
4 °C 10 km+ 4.600 ft 020° 020° 7 kt METAR LFOP 021100Z AUTO 02007KT 9999 BKN046 OVC170 04/01 Q1022 BECMG BKN009
11:30
V
4 °C 9 km 4.800 ft 010° 010° 5 kt METAR LFOP 021030Z AUTO 01005KT 9000 FEW040 BKN048 BKN098 04/01 Q1022 BECMG BKN009
11:00
V
3 °C 8 km 3.900 ft 010° 010° 5 kt METAR LFOP 021000Z AUTO 01005KT 8000 OVC039 03/01 Q1022 BECMG BKN009
10:30
V
3 °C 8 km 4.300 ft 010° 010° 5 kt METAR LFOP 020930Z AUTO 01005KT 8000 OVC043 03/01 Q1022 BECMG BKN009
10:00
M
3 °C 7 km 4.900 ft 020° 020° 4 kt METAR LFOP 020900Z AUTO 02004KT 7000 OVC049 03/01 Q1022 BECMG BKN009
09:30
M
2 °C 6 km 4.800 ft 010° 010° 4 kt METAR LFOP 020830Z AUTO 01004KT 6000 OVC048 02/01 Q1022 BECMG BKN009
09:00
M
2 °C 5 km 4.800 ft 360° 360° 5 kt METAR LFOP 020800Z AUTO 36005KT 5000 BR OVC048 02/00 Q1022 NOSIG
08:30
M
2 °C 5 km 4.800 ft 360° 360° 4 kt METAR LFOP 020730Z AUTO 36004KT 5000 BR BKN048 OVC170 02/00 Q1022 NOSIG
08:00
M
2 °C 6 km - 360° 360° 4 kt METAR LFOP 020700Z AUTO 36004KT 6000 NSC 02/00 Q1022 NOSIG
07:30
M
2 °C 6 km - 010° 010° 4 kt METAR LFOP 020630Z AUTO 01004KT 6000 NSC 02/00 Q1023 NOSIG
07:00
M
2 °C 6 km - 020° 020° 4 kt METAR LFOP 020600Z AUTO 02004KT 6000 NSC 02/00 Q1023 NOSIG
06:30
M
1 °C 5 km - 030° 030° 5 kt METAR LFOP 020530Z AUTO 03005KT 5000 BR NSC 01/00 Q1023
06:00
M
1 °C 5 km - 010° 010° 5 kt METAR LFOP 020500Z AUTO 01005KT 5000 BR NSC 01/M00 Q1023
05:30
M
2 °C 6 km - 360° 360° 5 kt METAR LFOP 020430Z AUTO 36005KT 6000 NSC 02/M00 Q1023
05:00
M
1 °C 6 km - 020° 020° 4 kt METAR LFOP 020400Z AUTO 02004KT 6000 NSC 01/M01 Q1023
04:30
M
1 °C 6 km - 020° 020° 5 kt METAR LFOP 020330Z AUTO 02005KT 6000 NSC 01/M00 Q1023
04:00
M
1 °C 6 km - 020° 020° 5 kt METAR LFOP 020300Z AUTO 02005KT 6000 NSC 01/M00 Q1024
03:30
M
1 °C 7 km - 030° 030° 6 kt METAR LFOP 020230Z AUTO 03006KT 7000 FEW028 01/M01 Q1024
03:00
M
2 °C 7 km - 010° 010° 6 kt METAR LFOP 020200Z AUTO 01006KT 7000 FEW030 02/M00 Q1024
02:30
M
2 °C 7 km - 020° 020° 6 kt METAR LFOP 020130Z AUTO 02006KT 7000 NSC 02/00 Q1024
02:00
M
3 °C 7 km - 360° 360° 6 kt METAR LFOP 020100Z AUTO 36006KT 7000 SCT028 03/01 Q1024
01:30
M
4 °C 7 km 2.700 ft 360° 360° 7 kt METAR LFOP 020030Z AUTO 36007KT 7000 OVC027 04/01 Q1025
01:00
M
4 °C 7 km 2.500 ft 030° 030° 5 kt METAR LFOP 020000Z AUTO 03005KT 7000 OVC025 04/02 Q1025
00:30
M
4 °C 8 km 2.400 ft 020° 020° 5 kt METAR LFOP 012330Z AUTO 02005KT 8000 OVC024 04/02 Q1025
00:00
M
4 °C 9 km 2.100 ft 040° 040° 5 kt METAR LFOP 012300Z AUTO 04005KT 9000 OVC021 04/02 Q1025

1. Dezember 2022

Uhrzeit Code Wetter Temp. Sichtweite Wolkendecke Wind METAR/SPECI
23:30
M
4 °C 10 km+ 1.800 ft 040° 040° 7 kt METAR LFOP 012230Z AUTO 04007KT 9999 OVC018 04/02 Q1026
23:00
M
4 °C 10 km+ 1.700 ft 040° 040° 8 kt METAR LFOP 012200Z AUTO 04008KT 9999 OVC017 04/02 Q1025
22:30
M
4 °C 10 km+ 1.800 ft 050° 050° 9 kt METAR LFOP 012130Z AUTO 05009KT 9999 OVC018 04/02 Q1025
22:00
M
4 °C 8 km 1.800 ft 040° 040° 7 kt METAR LFOP 012100Z AUTO 04007KT 8000 OVC018 04/02 Q1026 TEMPO BKN010 BKN020
21:30
M
4 °C 7 km 2.000 ft 030° 030° 8 kt METAR LFOP 012030Z AUTO 03008KT 7000 OVC020 04/02 Q1026 TEMPO BKN010 BKN020
21:00
M
4 °C 8 km 2.100 ft 030° 030° 6 kt METAR LFOP 012000Z AUTO 03006KT 8000 OVC021 04/02 Q1026 TEMPO BKN010 BKN020
20:30
M
4 °C 8 km 2.200 ft 010° 010° 6 kt METAR LFOP 011930Z AUTO 01006KT 8000 OVC022 04/02 Q1026 TEMPO BKN010 BKN020
20:00
M
4 °C 10 km+ 2.000 ft 010° 010° 5 kt METAR LFOP 011900Z AUTO 01005KT 9999 OVC020 04/02 Q1026 TEMPO BKN010 BKN020
19:30
M
4 °C 10 km+ 1.900 ft 030° 030° 4 kt METAR LFOP 011830Z AUTO 03004KT 9999 OVC019 04/02 Q1026 TEMPO BKN010 BKN020
19:00
M
4 °C 10 km+ 1.900 ft 070° 070° 4 kt METAR LFOP 011800Z AUTO 07004KT 9999 OVC019 04/02 Q1026 TEMPO BKN010 BKN020
18:30
M
5 °C 10 km+ 1.900 ft 080° 080° 6 kt METAR LFOP 011730Z AUTO 08006KT 9999 OVC019 05/02 Q1026 BECMG BKN012
18:00
M
5 °C 10 km+ 1.600 ft 060° 060° 11 kt METAR LFOP 011700Z AUTO 06011KT 9999 OVC016 05/02 Q1026 BECMG BKN012
17:30
M
4 °C 10 km+ 1.400 ft 030° 030° 7 kt METAR LFOP 011630Z AUTO 03007KT 9999 OVC014 04/02 Q1026 NOSIG
17:00
M
4 °C 10 km+ 1.400 ft 050° 050° 5 kt METAR LFOP 011600Z AUTO 05005KT 9999 OVC014 04/02 Q1026 NOSIG
16:30
M
4 °C 10 km+ 1.100 ft 030° 030° 5 kt METAR LFOP 011530Z AUTO 03005KT 9999 OVC011 04/02 Q1026 NOSIG
16:00
M
4 °C 9 km 1.000 ft 040° 040° 9 kt METAR LFOP 011500Z AUTO 04009KT 9000 OVC010 04/02 Q1026 NOSIG
15:30
M
4 °C 9 km 1.200 ft 040° 040° 9 kt METAR LFOP 011430Z AUTO 04009KT 010V070 9000 OVC012 04/02 Q1026 NOSIG
15:00
M
5 °C 10 km+ 1.500 ft 060° 060° 9 kt METAR LFOP 011400Z AUTO 06009KT 9999 OVC015 05/02 Q1025 BECMG BKN012
14:30
M
5 °C 10 km+ 1.500 ft 050° 050° 7 kt METAR LFOP 011330Z AUTO 05007KT 9999 BKN015 05/03 Q1026 BECMG BKN012
14:00
V
6 °C 10 km+ - 030° 030° 10 kt METAR LFOP 011300Z AUTO 03010KT 9999 SCT013 06/03 Q1026 BECMG BKN012
13:30
M
5 °C 9 km 1.000 ft 360° 360° 7 kt METAR LFOP 011230Z AUTO 36007KT 9000 OVC010 05/03 Q1026 NOSIG
13:00
I
4 °C 10 km+ 900 ft 020° 020° 9 kt METAR LFOP 011200Z AUTO 02009KT 9999 OVC009 04/02 Q1027 BECMG BKN012
12:30
I
4 °C 8 km 700 ft 010° 010° 6 kt METAR LFOP 011130Z AUTO 01006KT 8000 OVC007 04/02 Q1027 BECMG BKN012
12:00
I
4 °C 7 km 600 ft 040° 040° 5 kt METAR LFOP 011100Z AUTO 04005KT 020V110 7000 OVC006 04/03 Q1027 NOSIG
11:30
I
4 °C 6 km 600 ft 050° 050° 5 kt METAR LFOP 011030Z AUTO 05005KT 010V080 6000 OVC006 04/02 Q//// NOSIG
11:00
I
3 °C 6 km 500 ft 060° 060° 6 kt METAR LFOP 011000Z AUTO 06006KT 030V090 6000 OVC005 03/02 Q//// NOSIG

Wir und Dritte verfolgen dein Internetverhalten auf unserer Website mit Cookies. Wenn du fortfährst, gehen wir davon aus, dass du mit unserer Cookie-Richtlinie einverstanden bist.